sensor_id;sensor_type;location;lat;lon;timestamp;pressure;altitude;pressure_sealevel;temperature;humidity
39793;BME280;26080;42.264;24.536;2023-02-08T00:00:20;101104.00;;;-3.49;99.14
39793;BME280;26080;42.264;24.536;2023-02-08T00:02:45;101098.88;;;-3.49;100.00
39793;BME280;26080;42.264;24.536;2023-02-08T00:05:11;101111.63;;;-3.50;100.00
39793;BME280;26080;42.264;24.536;2023-02-08T00:07:36;101112.38;;;-3.53;100.00
39793;BME280;26080;42.264;24.536;2023-02-08T00:10:03;101115.34;;;-3.42;100.00
39793;BME280;26080;42.264;24.536;2023-02-08T00:12:31;101101.59;;;-3.44;100.00
39793;BME280;26080;42.264;24.536;2023-02-08T00:14:57;101111.38;;;-3.57;100.00
39793;BME280;26080;42.264;24.536;2023-02-08T00:17:22;101104.94;;;-3.69;100.00
39793;BME280;26080;42.264;24.536;2023-02-08T00:19:48;101101.06;;;-3.80;100.00
39793;BME280;26080;42.264;24.536;2023-02-08T00:22:13;101116.31;;;-3.83;100.00
39793;BME280;26080;42.264;24.536;2023-02-08T00:24:39;101113.38;;;-3.93;100.00
39793;BME280;26080;42.264;24.536;2023-02-08T00:27:05;101116.75;;;-3.94;100.00
39793;BME280;26080;42.264;24.536;2023-02-08T00:29:30;101110.44;;;-4.02;100.00
39793;BME280;26080;42.264;24.536;2023-02-08T00:31:56;101086.88;;;-4.15;100.00
39793;BME280;26080;42.264;24.536;2023-02-08T00:34:21;101125.91;;;-3.99;100.00
39793;BME280;26080;42.264;24.536;2023-02-08T00:36:47;101120.91;;;-3.97;100.00
39793;BME280;26080;42.264;24.536;2023-02-08T00:39:12;101092.25;;;-4.09;100.00
39793;BME280;26080;42.264;24.536;2023-02-08T00:41:38;101117.69;;;-3.92;100.00
39793;BME280;26080;42.264;24.536;2023-02-08T00:44:03;101101.19;;;-3.98;100.00
39793;BME280;26080;42.264;24.536;2023-02-08T00:46:29;101135.28;;;-3.78;100.00
39793;BME280;26080;42.264;24.536;2023-02-08T00:48:54;101130.53;;;-3.69;100.00
39793;BME280;26080;42.264;24.536;2023-02-08T00:51:20;101131.16;;;-3.75;100.00
39793;BME280;26080;42.264;24.536;2023-02-08T00:53:45;101133.78;;;-3.73;100.00
39793;BME280;26080;42.264;24.536;2023-02-08T00:56:12;101108.88;;;-3.77;100.00
39793;BME280;26080;42.264;24.536;2023-02-08T00:58:38;101136.88;;;-3.60;100.00
39793;BME280;26080;42.264;24.536;2023-02-08T01:01:05;101089.09;;;-3.81;100.00
39793;BME280;26080;42.264;24.536;2023-02-08T01:03:35;101143.78;;;-3.57;100.00
39793;BME280;26080;42.264;24.536;2023-02-08T01:06:03;101137.41;;;-3.68;100.00
39793;BME280;26080;42.264;24.536;2023-02-08T01:08:28;101144.94;;;-3.71;100.00
39793;BME280;26080;42.264;24.536;2023-02-08T01:11:05;101110.28;;;-3.84;100.00
39793;BME280;26080;42.264;24.536;2023-02-08T01:13:31;101138.88;;;-3.73;100.00
39793;BME280;26080;42.264;24.536;2023-02-08T01:16:10;101139.59;;;-3.77;100.00
39793;BME280;26080;42.264;24.536;2023-02-08T01:18:37;101136.03;;;-3.81;100.00
39793;BME280;26080;42.264;24.536;2023-02-08T01:21:07;101133.28;;;-3.85;100.00
39793;BME280;26080;42.264;24.536;2023-02-08T01:23:33;101138.28;;;-3.89;100.00
39793;BME280;26080;42.264;24.536;2023-02-08T01:25:59;101144.97;;;-3.92;100.00
39793;BME280;26080;42.264;24.536;2023-02-08T01:28:25;101104.28;;;-4.07;100.00
39793;BME280;26080;42.264;24.536;2023-02-08T01:30:50;101132.22;;;-3.91;100.00
39793;BME280;26080;42.264;24.536;2023-02-08T01:33:16;101133.06;;;-3.92;100.00
39793;BME280;26080;42.264;24.536;2023-02-08T01:35:41;101127.06;;;-3.92;100.00
39793;BME280;26080;42.264;24.536;2023-02-08T01:38:07;101133.09;;;-3.90;100.00
39793;BME280;26080;42.264;24.536;2023-02-08T01:40:32;101138.16;;;-3.92;100.00
39793;BME280;26080;42.264;24.536;2023-02-08T01:42:58;101112.78;;;-4.08;100.00
39793;BME280;26080;42.264;24.536;2023-02-08T01:45:26;101140.78;;;-3.90;100.00
39793;BME280;26080;42.264;24.536;2023-02-08T01:48:00;101142.41;;;-3.92;100.00
39793;BME280;26080;42.264;24.536;2023-02-08T01:50:31;101135.66;;;-3.90;100.00
39793;BME280;26080;42.264;24.536;2023-02-08T01:52:58;101102.34;;;-4.12;100.00
39793;BME280;26080;42.264;24.536;2023-02-08T01:55:29;101106.59;;;-4.13;100.00
39793;BME280;26080;42.264;24.536;2023-02-08T01:57:58;101144.91;;;-3.94;100.00
39793;BME280;26080;42.264;24.536;2023-02-08T02:00:24;101146.59;;;-3.94;100.00
39793;BME280;26080;42.264;24.536;2023-02-08T02:02:53;101157.50;;;-3.98;100.00
39793;BME280;26080;42.264;24.536;2023-02-08T02:05:25;101145.16;;;-4.08;100.00
39793;BME280;26080;42.264;24.536;2023-02-08T02:07:52;101154.53;;;-4.09;100.00
39793;BME280;26080;42.264;24.536;2023-02-08T02:10:33;101155.13;;;-4.14;100.00
39793;BME280;26080;42.264;24.536;2023-02-08T02:13:06;101157.53;;;-4.19;100.00
39793;BME280;26080;42.264;24.536;2023-02-08T02:15:32;101165.06;;;-4.22;100.00
39793;BME280;26080;42.264;24.536;2023-02-08T02:17:59;101163.19;;;-4.26;100.00
39793;BME280;26080;42.264;24.536;2023-02-08T02:26:09;101166.69;;;-4.24;100.00
39793;BME280;26080;42.264;24.536;2023-02-08T02:31:49;101171.03;;;-4.42;100.00
39793;BME280;26080;42.264;24.536;2023-02-08T02:34:42;101163.56;;;-4.57;100.00
39793;BME280;26080;42.264;24.536;2023-02-08T02:37:29;101149.72;;;-4.62;100.00
39793;BME280;26080;42.264;24.536;2023-02-08T02:54:02;101191.03;;;-4.72;100.00
39793;BME280;26080;42.264;24.536;2023-02-08T02:56:40;101192.44;;;-4.79;100.00
39793;BME280;26080;42.264;24.536;2023-02-08T02:59:10;101192.97;;;-4.86;100.00
39793;BME280;26080;42.264;24.536;2023-02-08T03:01:36;101186.63;;;-4.94;100.00
39793;BME280;26080;42.264;24.536;2023-02-08T03:17:49;101213.63;;;-5.37;100.00
39793;BME280;26080;42.264;24.536;2023-02-08T03:20:40;101220.28;;;-5.40;100.00
39793;BME280;26080;42.264;24.536;2023-02-08T03:25:50;101217.69;;;-5.59;100.00
39793;BME280;26080;42.264;24.536;2023-02-08T03:36:43;101227.88;;;-5.95;100.00
39793;BME280;26080;42.264;24.536;2023-02-08T03:39:19;101225.38;;;-5.93;100.00
39793;BME280;26080;42.264;24.536;2023-02-08T03:41:48;101230.34;;;-5.97;100.00
39793;BME280;26080;42.264;24.536;2023-02-08T03:44:21;101240.41;;;-6.00;100.00
39793;BME280;26080;42.264;24.536;2023-02-08T03:46:52;101246.38;;;-5.99;100.00
39793;BME280;26080;42.264;24.536;2023-02-08T03:49:27;101210.13;;;-6.10;100.00
39793;BME280;26080;42.264;24.536;2023-02-08T03:51:57;101246.81;;;-5.90;100.00
39793;BME280;26080;42.264;24.536;2023-02-08T03:54:27;101247.91;;;-5.85;100.00
39793;BME280;26080;42.264;24.536;2023-02-08T03:57:11;101249.00;;;-5.80;100.00
39793;BME280;26080;42.264;24.536;2023-02-08T03:59:40;101251.06;;;-5.73;100.00
39793;BME280;26080;42.264;24.536;2023-02-08T04:02:13;101254.50;;;-5.72;100.00
39793;BME280;26080;42.264;24.536;2023-02-08T04:04:43;101219.69;;;-5.88;100.00
39793;BME280;26080;42.264;24.536;2023-02-08T04:07:11;101248.66;;;-5.70;100.00
39793;BME280;26080;42.264;24.536;2023-02-08T04:09:36;101253.09;;;-5.66;100.00
39793;BME280;26080;42.264;24.536;2023-02-08T04:12:02;101253.41;;;-5.59;100.00
39793;BME280;26080;42.264;24.536;2023-02-08T04:14:28;101251.81;;;-5.57;100.00
39793;BME280;26080;42.264;24.536;2023-02-08T04:16:54;101249.41;;;-5.54;100.00
39793;BME280;26080;42.264;24.536;2023-02-08T04:19:19;101257.25;;;-5.50;100.00
39793;BME280;26080;42.264;24.536;2023-02-08T04:21:45;101204.53;;;-5.67;100.00
39793;BME280;26080;42.264;24.536;2023-02-08T04:24:10;101254.78;;;-5.48;100.00
39793;BME280;26080;42.264;24.536;2023-02-08T04:26:36;101258.88;;;-5.52;100.00
39793;BME280;26080;42.264;24.536;2023-02-08T04:29:01;101252.00;;;-5.35;100.00
39793;BME280;26080;42.264;24.536;2023-02-08T04:31:27;101254.66;;;-5.33;100.00
39793;BME280;26080;42.264;24.536;2023-02-08T04:33:52;101262.75;;;-5.24;100.00
39793;BME280;26080;42.264;24.536;2023-02-08T04:36:18;101251.44;;;-5.29;100.00
39793;BME280;26080;42.264;24.536;2023-02-08T04:38:43;101269.09;;;-5.16;100.00
39793;BME280;26080;42.264;24.536;2023-02-08T04:41:09;101257.28;;;-5.14;100.00
39793;BME280;26080;42.264;24.536;2023-02-08T04:43:35;101274.38;;;-4.94;100.00
39793;BME280;26080;42.264;24.536;2023-02-08T04:46:00;101217.56;;;-5.25;100.00
39793;BME280;26080;42.264;24.536;2023-02-08T04:48:26;101272.81;;;-4.92;100.00
39793;BME280;26080;42.264;24.536;2023-02-08T04:50:55;101273.00;;;-4.87;100.00
39793;BME280;26080;42.264;24.536;2023-02-08T04:53:22;101280.06;;;-4.82;100.00
39793;BME280;26080;42.264;24.536;2023-02-08T04:55:48;101283.31;;;-4.86;100.00
39793;BME280;26080;42.264;24.536;2023-02-08T04:58:13;101259.59;;;-5.01;100.00
39793;BME280;26080;42.264;24.536;2023-02-08T05:00:39;101299.50;;;-4.85;100.00
39793;BME280;26080;42.264;24.536;2023-02-08T05:03:04;101298.56;;;-4.87;100.00
39793;BME280;26080;42.264;24.536;2023-02-08T05:05:36;101297.63;;;-4.89;100.00
39793;BME280;26080;42.264;24.536;2023-02-08T05:08:02;101289.97;;;-4.89;100.00
39793;BME280;26080;42.264;24.536;2023-02-08T05:10:27;101307.97;;;-4.86;100.00
39793;BME280;26080;42.264;24.536;2023-02-08T05:12:54;101305.63;;;-4.82;100.00
39793;BME280;26080;42.264;24.536;2023-02-08T05:15:19;101311.03;;;-4.75;100.00
39793;BME280;26080;42.264;24.536;2023-02-08T05:17:45;101317.59;;;-4.81;100.00
39793;BME280;26080;42.264;24.536;2023-02-08T05:20:11;101309.44;;;-4.73;100.00
39793;BME280;26080;42.264;24.536;2023-02-08T05:22:37;101294.28;;;-4.69;100.00
39793;BME280;26080;42.264;24.536;2023-02-08T05:25:04;101331.75;;;-4.52;100.00
39793;BME280;26080;42.264;24.536;2023-02-08T05:27:29;101327.03;;;-4.42;100.00
39793;BME280;26080;42.264;24.536;2023-02-08T05:29:55;101319.97;;;-4.48;100.00
39793;BME280;26080;42.264;24.536;2023-02-08T05:32:20;101324.34;;;-4.45;100.00
39793;BME280;26080;42.264;24.536;2023-02-08T05:34:46;101332.75;;;-4.48;100.00
39793;BME280;26080;42.264;24.536;2023-02-08T05:53:31;101338.16;;;-4.03;100.00
39793;BME280;26080;42.264;24.536;2023-02-08T05:55:57;101338.25;;;-4.21;100.00
39793;BME280;26080;42.264;24.536;2023-02-08T05:58:23;101346.19;;;-4.34;100.00
39793;BME280;26080;42.264;24.536;2023-02-08T06:00:48;101352.47;;;-4.45;100.00
39793;BME280;26080;42.264;24.536;2023-02-08T06:03:14;101343.38;;;-4.58;100.00
39793;BME280;26080;42.264;24.536;2023-02-08T06:05:40;101312.50;;;-4.81;100.00
39793;BME280;26080;42.264;24.536;2023-02-08T06:08:06;101350.03;;;-4.62;100.00
39793;BME280;26080;42.264;24.536;2023-02-08T06:10:32;101353.59;;;-4.58;100.00
39793;BME280;26080;42.264;24.536;2023-02-08T06:12:58;101358.50;;;-4.63;100.00
39793;BME280;26080;42.264;24.536;2023-02-08T06:15:24;101365.38;;;-4.62;100.00
39793;BME280;26080;42.264;24.536;2023-02-08T06:17:49;101321.84;;;-4.81;100.00
39793;BME280;26080;42.264;24.536;2023-02-08T06:20:18;101362.44;;;-4.52;100.00
39793;BME280;26080;42.264;24.536;2023-02-08T06:22:47;101368.50;;;-4.50;100.00
39793;BME280;26080;42.264;24.536;2023-02-08T06:25:12;101373.06;;;-4.42;100.00
39793;BME280;26080;42.264;24.536;2023-02-08T06:27:38;101367.38;;;-4.37;100.00
39793;BME280;26080;42.264;24.536;2023-02-08T06:30:04;101363.47;;;-4.29;100.00
39793;BME280;26080;42.264;24.536;2023-02-08T06:32:29;101369.00;;;-4.20;100.00
39793;BME280;26080;42.264;24.536;2023-02-08T06:34:56;101370.09;;;-4.14;100.00
39793;BME280;26080;42.264;24.536;2023-02-08T06:37:21;101369.50;;;-4.09;100.00
39793;BME280;26080;42.264;24.536;2023-02-08T06:39:47;101351.66;;;-4.07;100.00
39793;BME280;26080;42.264;24.536;2023-02-08T06:42:12;101387.75;;;-3.82;100.00
39793;BME280;26080;42.264;24.536;2023-02-08T06:44:38;101387.56;;;-3.67;100.00
39793;BME280;26080;42.264;24.536;2023-02-08T06:47:09;101385.38;;;-3.58;100.00
39793;BME280;26080;42.264;24.536;2023-02-08T06:49:35;101385.41;;;-3.57;100.00
39793;BME280;26080;42.264;24.536;2023-02-08T06:52:00;101385.00;;;-3.46;100.00
39793;BME280;26080;42.264;24.536;2023-02-08T06:54:25;101358.63;;;-3.65;100.00
39793;BME280;26080;42.264;24.536;2023-02-08T06:56:51;101379.59;;;-3.54;100.00
39793;BME280;26080;42.264;24.536;2023-02-08T06:59:16;101384.75;;;-3.52;100.00
39793;BME280;26080;42.264;24.536;2023-02-08T07:01:42;101376.34;;;-3.50;100.00
39793;BME280;26080;42.264;24.536;2023-02-08T07:04:07;101386.63;;;-3.48;100.00
39793;BME280;26080;42.264;24.536;2023-02-08T07:06:33;101379.41;;;-3.38;100.00
39793;BME280;26080;42.264;24.536;2023-02-08T07:08:58;101373.19;;;-3.43;100.00
39793;BME280;26080;42.264;24.536;2023-02-08T07:11:24;101393.56;;;-3.26;100.00
39793;BME280;26080;42.264;24.536;2023-02-08T07:13:50;101390.53;;;-3.16;100.00
39793;BME280;26080;42.264;24.536;2023-02-08T07:16:17;101395.41;;;-3.02;100.00
39793;BME280;26080;42.264;24.536;2023-02-08T07:18:43;101390.91;;;-3.07;100.00
39793;BME280;26080;42.264;24.536;2023-02-08T07:21:10;101367.22;;;-3.22;100.00
39793;BME280;26080;42.264;24.536;2023-02-08T07:23:37;101402.31;;;-3.01;100.00
39793;BME280;26080;42.264;24.536;2023-02-08T07:26:08;101373.56;;;-3.14;100.00
39793;BME280;26080;42.264;24.536;2023-02-08T07:28:34;101408.78;;;-2.88;100.00
39793;BME280;26080;42.264;24.536;2023-02-08T07:31:07;101385.31;;;-2.99;100.00
39793;BME280;26080;42.264;24.536;2023-02-08T07:33:33;101350.91;;;-3.04;100.00
39793;BME280;26080;42.264;24.536;2023-02-08T07:35:58;101406.09;;;-2.70;100.00
39793;BME280;26080;42.264;24.536;2023-02-08T07:38:23;101356.50;;;-2.91;100.00
39793;BME280;26080;42.264;24.536;2023-02-08T07:40:49;101404.66;;;-2.63;100.00
39793;BME280;26080;42.264;24.536;2023-02-08T07:43:14;101408.13;;;-2.61;100.00
39793;BME280;26080;42.264;24.536;2023-02-08T07:45:40;101415.38;;;-2.51;100.00
39793;BME280;26080;42.264;24.536;2023-02-08T07:48:06;101415.16;;;-2.35;100.00
39793;BME280;26080;42.264;24.536;2023-02-08T07:50:31;101413.72;;;-2.28;100.00
39793;BME280;26080;42.264;24.536;2023-02-08T07:52:57;101410.75;;;-2.17;100.00
39793;BME280;26080;42.264;24.536;2023-02-08T07:55:22;101384.50;;;-2.32;99.50
39793;BME280;26080;42.264;24.536;2023-02-08T07:57:48;101406.34;;;-1.97;99.79
39793;BME280;26080;42.264;24.536;2023-02-08T08:00:16;101403.25;;;-1.88;99.11
39793;BME280;26080;42.264;24.536;2023-02-08T08:02:42;101400.44;;;-1.94;96.79
39793;BME280;26080;42.264;24.536;2023-02-08T08:05:08;101412.13;;;-1.79;96.89
39793;BME280;26080;42.264;24.536;2023-02-08T08:07:34;101419.47;;;-1.65;96.54
39793;BME280;26080;42.264;24.536;2023-02-08T08:10:00;101421.00;;;-1.46;95.51
39793;BME280;26080;42.264;24.536;2023-02-08T08:12:26;101417.78;;;-1.15;94.55
39793;BME280;26080;42.264;24.536;2023-02-08T08:14:51;101434.09;;;-0.90;92.28
39793;BME280;26080;42.264;24.536;2023-02-08T08:17:17;101429.84;;;-0.87;89.63
39793;BME280;26080;42.264;24.536;2023-02-08T08:19:43;101420.38;;;-0.63;89.57
39793;BME280;26080;42.264;24.536;2023-02-08T08:22:08;101429.34;;;-0.50;86.85
39793;BME280;26080;42.264;24.536;2023-02-08T08:24:34;101431.22;;;-0.45;87.49
39793;BME280;26080;42.264;24.536;2023-02-08T08:27:01;101428.16;;;-0.33;84.68
39793;BME280;26080;42.264;24.536;2023-02-08T08:29:27;101417.38;;;-0.21;83.86
39793;BME280;26080;42.264;24.536;2023-02-08T08:31:52;101425.00;;;-0.24;78.34
39793;BME280;26080;42.264;24.536;2023-02-08T08:34:18;101422.25;;;-0.29;77.71
39793;BME280;26080;42.264;24.536;2023-02-08T08:36:43;101415.28;;;-0.33;78.69
39793;BME280;26080;42.264;24.536;2023-02-08T08:39:09;101418.94;;;-0.26;78.49
39793;BME280;26080;42.264;24.536;2023-02-08T08:41:34;101431.53;;;-0.36;76.46
39793;BME280;26080;42.264;24.536;2023-02-08T08:44:01;101432.06;;;-0.46;76.16
39793;BME280;26080;42.264;24.536;2023-02-08T08:46:27;101428.91;;;-0.64;77.06
39793;BME280;26080;42.264;24.536;2023-02-08T08:48:52;101412.88;;;-0.82;78.90
39793;BME280;26080;42.264;24.536;2023-02-08T08:51:18;101435.59;;;-0.69;75.86
39793;BME280;26080;42.264;24.536;2023-02-08T08:53:43;101430.66;;;-0.63;75.94
39793;BME280;26080;42.264;24.536;2023-02-08T08:56:09;101432.16;;;-0.43;75.52
39793;BME280;26080;42.264;24.536;2023-02-08T08:58:34;101427.72;;;-0.47;77.11
39793;BME280;26080;42.264;24.536;2023-02-08T09:01:00;101426.06;;;-0.45;77.79
39793;BME280;26080;42.264;24.536;2023-02-08T09:03:26;101435.75;;;-0.38;76.07
39793;BME280;26080;42.264;24.536;2023-02-08T09:05:52;101402.78;;;-0.49;71.99
39793;BME280;26080;42.264;24.536;2023-02-08T09:08:17;101433.19;;;-0.38;74.00
39793;BME280;26080;42.264;24.536;2023-02-08T09:10:42;101437.75;;;-0.27;74.21
39793;BME280;26080;42.264;24.536;2023-02-08T09:13:08;101443.84;;;-0.25;76.29
39793;BME280;26080;42.264;24.536;2023-02-08T09:15:38;101435.34;;;-0.23;74.18
39793;BME280;26080;42.264;24.536;2023-02-08T09:18:03;101445.59;;;-0.24;73.79
39793;BME280;26080;42.264;24.536;2023-02-08T09:20:29;101440.44;;;-0.24;74.26
39793;BME280;26080;42.264;24.536;2023-02-08T09:22:54;101448.59;;;-0.11;76.03
39793;BME280;26080;42.264;24.536;2023-02-08T09:25:21;101444.13;;;-0.16;72.18
39793;BME280;26080;42.264;24.536;2023-02-08T09:27:46;101454.53;;;-0.13;73.24
39793;BME280;26080;42.264;24.536;2023-02-08T09:30:12;101446.16;;;-0.06;72.79
39793;BME280;26080;42.264;24.536;2023-02-08T09:32:38;101424.84;;;-0.01;68.53
39793;BME280;26080;42.264;24.536;2023-02-08T09:35:07;101417.81;;;-0.06;68.69
39793;BME280;26080;42.264;24.536;2023-02-08T09:37:33;101408.75;;;0.07;64.87
39793;BME280;26080;42.264;24.536;2023-02-08T09:39:58;101424.75;;;0.26;65.87
39793;BME280;26080;42.264;24.536;2023-02-08T09:42:28;101428.91;;;0.21;65.23
39793;BME280;26080;42.264;24.536;2023-02-08T09:45:13;101430.13;;;0.34;67.44
39793;BME280;26080;42.264;24.536;2023-02-08T09:48:00;101439.97;;;0.47;67.83
39793;BME280;26080;42.264;24.536;2023-02-08T09:50:39;101429.28;;;0.67;67.70
39793;BME280;26080;42.264;24.536;2023-02-08T09:53:20;101391.00;;;0.49;65.58
39793;BME280;26080;42.264;24.536;2023-02-08T09:55:53;101419.97;;;0.70;63.21
39793;BME280;26080;42.264;24.536;2023-02-08T09:58:22;101424.19;;;0.68;62.41
39793;BME280;26080;42.264;24.536;2023-02-08T10:00:48;101426.53;;;0.59;64.43
39793;BME280;26080;42.264;24.536;2023-02-08T10:03:37;101415.75;;;0.74;63.92
39793;BME280;26080;42.264;24.536;2023-02-08T10:06:05;101406.47;;;0.82;64.34
39793;BME280;26080;42.264;24.536;2023-02-08T10:08:31;101368.78;;;0.54;62.73
39793;BME280;26080;42.264;24.536;2023-02-08T10:11:06;101406.41;;;0.79;63.62
39793;BME280;26080;42.264;24.536;2023-02-08T10:23:01;101402.75;;;1.04;63.72
39793;BME280;26080;42.264;24.536;2023-02-08T10:33:36;101399.75;;;0.87;62.93
39793;BME280;26080;42.264;24.536;2023-02-08T10:36:27;101400.81;;;0.95;59.05
39793;BME280;26080;42.264;24.536;2023-02-08T10:38:56;101392.19;;;0.95;58.78
39793;BME280;26080;42.264;24.536;2023-02-08T10:41:28;101392.13;;;0.92;62.09
39793;BME280;26080;42.264;24.536;2023-02-08T10:51:41;101392.41;;;1.38;60.56
39793;BME280;26080;42.264;24.536;2023-02-08T10:54:11;101375.97;;;1.36;55.88
39793;BME280;26080;42.264;24.536;2023-02-08T10:56:47;101388.09;;;1.37;57.84
39793;BME280;26080;42.264;24.536;2023-02-08T10:59:19;101380.34;;;1.37;55.58
39793;BME280;26080;42.264;24.536;2023-02-08T11:01:46;101389.09;;;1.44;57.01
39793;BME280;26080;42.264;24.536;2023-02-08T11:04:13;101381.44;;;1.48;57.17
39793;BME280;26080;42.264;24.536;2023-02-08T11:06:41;101376.59;;;1.64;60.63
39793;BME280;26080;42.264;24.536;2023-02-08T11:09:22;101378.38;;;1.65;57.16
39793;BME280;26080;42.264;24.536;2023-02-08T11:11:48;101377.47;;;1.64;53.96
39793;BME280;26080;42.264;24.536;2023-02-08T11:14:19;101368.69;;;1.55;55.07
39793;BME280;26080;42.264;24.536;2023-02-08T11:16:55;101364.13;;;1.44;55.54
39793;BME280;26080;42.264;24.536;2023-02-08T11:19:41;101344.66;;;1.21;55.75
39793;BME280;26080;42.264;24.536;2023-02-08T11:22:22;101365.63;;;1.35;56.96
39793;BME280;26080;42.264;24.536;2023-02-08T11:25:02;101359.56;;;1.33;57.14
39793;BME280;26080;42.264;24.536;2023-02-08T11:27:33;101361.69;;;1.51;57.47
39793;BME280;26080;42.264;24.536;2023-02-08T11:32:33;101337.25;;;1.36;54.74
39793;BME280;26080;42.264;24.536;2023-02-08T11:35:12;101346.31;;;1.55;53.97
39793;BME280;26080;42.264;24.536;2023-02-08T11:37:50;101351.63;;;1.63;57.45
39793;BME280;26080;42.264;24.536;2023-02-08T11:40:26;101353.03;;;1.89;56.50
39793;BME280;26080;42.264;24.536;2023-02-08T11:42:53;101351.44;;;1.94;56.68
39793;BME280;26080;42.264;24.536;2023-02-08T11:48:47;101341.28;;;2.03;52.67
39793;BME280;26080;42.264;24.536;2023-02-08T11:51:24;101344.84;;;2.08;52.71
39793;BME280;26080;42.264;24.536;2023-02-08T11:53:53;101343.38;;;2.23;55.36
39793;BME280;26080;42.264;24.536;2023-02-08T11:56:22;101348.91;;;2.41;53.96
39793;BME280;26080;42.264;24.536;2023-02-08T12:01:42;101349.44;;;2.72;54.23
39793;BME280;26080;42.264;24.536;2023-02-08T12:04:13;101335.34;;;2.56;53.33
39793;BME280;26080;42.264;24.536;2023-02-08T12:06:43;101345.84;;;2.63;53.50
39793;BME280;26080;42.264;24.536;2023-02-08T12:14:44;101310.16;;;2.46;48.02
39793;BME280;26080;42.264;24.536;2023-02-08T12:22:47;101302.97;;;2.78;47.59
39793;BME280;26080;42.264;24.536;2023-02-08T12:30:32;101331.66;;;3.49;52.39
39793;BME280;26080;42.264;24.536;2023-02-08T12:41:43;101322.72;;;3.94;45.18
39793;BME280;26080;42.264;24.536;2023-02-08T12:47:36;101322.84;;;4.04;47.44
39793;BME280;26080;42.264;24.536;2023-02-08T12:53:02;101312.50;;;4.06;45.66
39793;BME280;26080;42.264;24.536;2023-02-08T12:55:33;101330.59;;;4.00;45.87
39793;BME280;26080;42.264;24.536;2023-02-08T12:58:26;101329.47;;;3.81;45.36
39793;BME280;26080;42.264;24.536;2023-02-08T13:00:54;101327.75;;;3.81;45.91
39793;BME280;26080;42.264;24.536;2023-02-08T13:03:43;101314.72;;;3.75;45.34
39793;BME280;26080;42.264;24.536;2023-02-08T13:06:15;101316.59;;;3.84;46.30
39793;BME280;26080;42.264;24.536;2023-02-08T13:11:52;101291.47;;;3.83;49.50
39793;BME280;26080;42.264;24.536;2023-02-08T13:14:34;101318.31;;;3.85;48.85
39793;BME280;26080;42.264;24.536;2023-02-08T13:17:14;101326.09;;;3.86;49.42
39793;BME280;26080;42.264;24.536;2023-02-08T13:19:55;101320.69;;;3.70;49.08
39793;BME280;26080;42.264;24.536;2023-02-08T13:22:22;101307.53;;;3.53;48.53
39793;BME280;26080;42.264;24.536;2023-02-08T13:24:49;101334.25;;;3.50;44.75
39793;BME280;26080;42.264;24.536;2023-02-08T13:27:18;101330.84;;;3.54;44.91
39793;BME280;26080;42.264;24.536;2023-02-08T13:29:45;101323.75;;;3.40;45.75
39793;BME280;26080;42.264;24.536;2023-02-08T13:32:22;101326.81;;;3.14;45.03
39793;BME280;26080;42.264;24.536;2023-02-08T13:35:01;101326.44;;;2.88;46.21
39793;BME280;26080;42.264;24.536;2023-02-08T13:37:32;101332.16;;;2.71;45.75
39793;BME280;26080;42.264;24.536;2023-02-08T13:43:15;101342.91;;;2.44;46.21
39793;BME280;26080;42.264;24.536;2023-02-08T13:45:50;101351.41;;;2.36;47.32
39793;BME280;26080;42.264;24.536;2023-02-08T13:48:17;101345.38;;;2.36;44.96
39793;BME280;26080;42.264;24.536;2023-02-08T13:59:34;101352.63;;;2.10;47.47
39793;BME280;26080;42.264;24.536;2023-02-08T14:04:46;101346.44;;;2.03;46.52
39793;BME280;26080;42.264;24.536;2023-02-08T14:07:26;101347.13;;;1.93;45.95
39793;BME280;26080;42.264;24.536;2023-02-08T14:10:09;101354.72;;;1.87;46.93
39793;BME280;26080;42.264;24.536;2023-02-08T14:15:38;101345.97;;;1.79;47.72
39793;BME280;26080;42.264;24.536;2023-02-08T14:18:24;101302.22;;;1.47;46.79
39793;BME280;26080;42.264;24.536;2023-02-08T14:21:00;101348.47;;;1.76;47.24
39793;BME280;26080;42.264;24.536;2023-02-08T14:23:27;101349.19;;;1.69;47.40
39793;BME280;26080;42.264;24.536;2023-02-08T14:25:56;101323.22;;;1.63;47.43
39793;BME280;26080;42.264;24.536;2023-02-08T14:28:27;101356.16;;;1.73;48.01
39793;BME280;26080;42.264;24.536;2023-02-08T14:30:55;101356.09;;;1.70;47.69
39793;BME280;26080;42.264;24.536;2023-02-08T14:33:34;101345.72;;;1.68;47.37
39793;BME280;26080;42.264;24.536;2023-02-08T14:36:03;101330.78;;;1.54;47.89
39793;BME280;26080;42.264;24.536;2023-02-08T14:38:49;101360.47;;;1.74;47.59
39793;BME280;26080;42.264;24.536;2023-02-08T14:41:41;101361.25;;;1.70;48.19
39793;BME280;26080;42.264;24.536;2023-02-08T14:50:00;101331.66;;;1.54;48.76
39793;BME280;26080;42.264;24.536;2023-02-08T14:52:30;101368.38;;;1.80;47.71
39793;BME280;26080;42.264;24.536;2023-02-08T14:57:31;101373.91;;;1.58;48.32
39793;BME280;26080;42.264;24.536;2023-02-08T15:00:00;101376.41;;;1.53;49.03
39793;BME280;26080;42.264;24.536;2023-02-08T15:02:27;101377.28;;;1.55;48.38
39793;BME280;26080;42.264;24.536;2023-02-08T15:05:01;101382.50;;;1.57;48.43
39793;BME280;26080;42.264;24.536;2023-02-08T15:07:51;101318.84;;;1.21;48.63
39793;BME280;26080;42.264;24.536;2023-02-08T15:10:19;101386.69;;;1.52;49.15
39793;BME280;26080;42.264;24.536;2023-02-08T15:13:05;101384.13;;;1.52;49.24
39793;BME280;26080;42.264;24.536;2023-02-08T15:15:42;101394.34;;;1.48;50.28
39793;BME280;26080;42.264;24.536;2023-02-08T15:18:18;101338.44;;;1.11;50.80
39793;BME280;26080;42.264;24.536;2023-02-08T15:20:57;101397.50;;;1.37;51.42
39793;BME280;26080;42.264;24.536;2023-02-08T15:23:23;101398.25;;;1.31;52.14
39793;BME280;26080;42.264;24.536;2023-02-08T15:25:55;101412.06;;;1.33;50.83